« Back
NWS Peachtree City, Ga » Text Product » AHN Terminal Aerodrome Forecast


Printer-friendly Version
Current Version              Previous Versions:   1  2  3  4  5  6  7  8  9  

Terminal Aerodrome Forecast

891
FTAK31 PAJN 252300
TAFAHN
TAF
PAHN 252332Z 2600/2624 10010KT P6SM VCSH SCT018 OVC060
      TEMPO 2600/2604 -RA BKN020 OVC060
     FM260400 09006KT P6SM -RA BKN018 OVC030
     FM260900 08005KT P6SM -RA SCT010 OVC018
     FM261800 10008KT P6SM -RA SCT015 OVC030
      AMD LTD TO CLD VIS AND WIND=

USA.gov is the U.S. government's official web portal to all federal, state and local government web resources and services.